Forside
METAR-TAF:

METAR-TAF

Lufthavne :

Ted Stevens Anchorage International Airport

Anchorage, Alaska, USA

Breddekreds: 61-10-28N, længdekreds: 149-59-46W, højde: 44 m

Aktuelle vejr

Denne rapport blev lavet for 31 minutter siden, kl. 14:53 UTC
Vind stille
Temperatur -2°C
Fugtighed 93%
Tryk 1003 hPa
Sigt: 16.1 km
skyfri

METAR: PANC 141453Z 00000KT 10SM CLR M02/M03 A2963 RMK AO2 SLP036 I1002 I3003 T10171028 52019 $

Tid: 06:24 (15:24 UTC)

Vejrudsigter

Denne rapport blev lavet for 1 time og 20 minutter siden, kl. 14:04 UTC
Foreløbig gælder fra 14 på 14 UTC til 15 på 18 UTC
Vind 4 kt fra varierende retninger
Sigt: 10 km
Nogle få skyer i en højde af 100 ft
delvist dækket af tåge
Midlertidig
fra 14 på 14 UTC til 14 på 18 UTC
Sigt: 0.8 km
i en højde af 100 ft
rimtåge

TAF: PANC 141404Z 1414/1518 VRB04KT P6SM VCFG FEW001 TEMPO 1414/1418 1/2SM FZFG VV001

Vejrobservationer og prognoser fra mere end 4000 lufthavne (METAR og TAF).

De gule og røde prikker repræsenterer de meteorologiske stationer.

Flyt musen over at se navnet på stationen.

Så klik over at se vejr observationer og prognoser.

At skifte det kort: Klik på de grønne knapper med et sort kors for at zoome ind; på den grønne knap med en bindestreg for at zoome ud; eller på de grønne pile for tilstødende kort.


METAR-TAF: